sensor_id;sensor_type;location;lat;lon;timestamp;temperature;humidity
69598;SHT31;56802;51.184;-115.558;2022-12-20T00:01:59;-26.48;63.58
69598;SHT31;56802;51.184;-115.558;2022-12-20T00:04:29;-26.46;63.63
69598;SHT31;56802;51.184;-115.558;2022-12-20T00:06:58;-26.43;63.65
69598;SHT31;56802;51.184;-115.558;2022-12-20T00:09:27;-26.47;63.70
69598;SHT31;56802;51.184;-115.558;2022-12-20T00:11:57;-26.51;63.61
69598;SHT31;56802;51.184;-115.558;2022-12-20T00:14:26;-26.51;63.64
69598;SHT31;56802;51.184;-115.558;2022-12-20T00:16:58;-26.50;63.74
69598;SHT31;56802;51.184;-115.558;2022-12-20T00:19:27;-26.47;63.70
69598;SHT31;56802;51.184;-115.558;2022-12-20T00:21:56;-26.46;63.64
69598;SHT31;56802;51.184;-115.558;2022-12-20T00:24:25;-26.44;63.73
69598;SHT31;56802;51.184;-115.558;2022-12-20T00:26:54;-26.44;63.61
69598;SHT31;56802;51.184;-115.558;2022-12-20T00:29:24;-26.47;63.58
69598;SHT31;56802;51.184;-115.558;2022-12-20T00:31:53;-26.51;63.44
69598;SHT31;56802;51.184;-115.558;2022-12-20T00:34:22;-26.57;63.28
69598;SHT31;56802;51.184;-115.558;2022-12-20T00:36:51;-26.68;62.99
69598;SHT31;56802;51.184;-115.558;2022-12-20T00:39:20;-26.67;63.12
69598;SHT31;56802;51.184;-115.558;2022-12-20T00:41:49;-26.70;62.96
69598;SHT31;56802;51.184;-115.558;2022-12-20T00:44:18;-26.75;62.94
69598;SHT31;56802;51.184;-115.558;2022-12-20T00:46:46;-26.79;62.99
69598;SHT31;56802;51.184;-115.558;2022-12-20T00:49:16;-26.83;62.93
69598;SHT31;56802;51.184;-115.558;2022-12-20T00:51:45;-26.87;62.96
69598;SHT31;56802;51.184;-115.558;2022-12-20T00:54:14;-27.02;62.77
69598;SHT31;56802;51.184;-115.558;2022-12-20T00:56:43;-27.06;63.05
69598;SHT31;56802;51.184;-115.558;2022-12-20T00:59:12;-27.08;63.07
69598;SHT31;56802;51.184;-115.558;2022-12-20T01:01:41;-27.00;63.09
69598;SHT31;56802;51.184;-115.558;2022-12-20T01:04:10;-27.07;62.97
69598;SHT31;56802;51.184;-115.558;2022-12-20T01:06:39;-27.11;62.80
69598;SHT31;56802;51.184;-115.558;2022-12-20T01:09:09;-27.11;62.87
69598;SHT31;56802;51.184;-115.558;2022-12-20T01:11:39;-27.08;63.14
69598;SHT31;56802;51.184;-115.558;2022-12-20T01:14:13;-27.11;63.13
69598;SHT31;56802;51.184;-115.558;2022-12-20T01:16:44;-27.22;62.89
69598;SHT31;56802;51.184;-115.558;2022-12-20T01:19:15;-27.36;62.70
69598;SHT31;56802;51.184;-115.558;2022-12-20T01:21:45;-27.43;62.70
69598;SHT31;56802;51.184;-115.558;2022-12-20T01:24:16;-27.49;62.64
69598;SHT31;56802;51.184;-115.558;2022-12-20T01:26:46;-27.49;62.72
69598;SHT31;56802;51.184;-115.558;2022-12-20T01:29:16;-27.50;62.75
69598;SHT31;56802;51.184;-115.558;2022-12-20T01:31:46;-27.61;62.51
69598;SHT31;56802;51.184;-115.558;2022-12-20T01:34:15;-27.68;62.50
69598;SHT31;56802;51.184;-115.558;2022-12-20T01:36:44;-27.70;62.64
69598;SHT31;56802;51.184;-115.558;2022-12-20T01:39:14;-27.74;62.50
69598;SHT31;56802;51.184;-115.558;2022-12-20T01:41:44;-27.75;62.32
69598;SHT31;56802;51.184;-115.558;2022-12-20T01:46:46;-27.67;62.38
69598;SHT31;56802;51.184;-115.558;2022-12-20T01:49:21;-27.69;62.34
69598;SHT31;56802;51.184;-115.558;2022-12-20T01:54:50;-27.83;62.13
69598;SHT31;56802;51.184;-115.558;2022-12-20T01:57:33;-27.81;62.19
69598;SHT31;56802;51.184;-115.558;2022-12-20T02:00:28;-27.84;62.20
69598;SHT31;56802;51.184;-115.558;2022-12-20T02:03:02;-27.88;62.08
69598;SHT31;56802;51.184;-115.558;2022-12-20T02:05:39;-27.97;61.91
69598;SHT31;56802;51.184;-115.558;2022-12-20T02:08:13;-28.10;61.64
69598;SHT31;56802;51.184;-115.558;2022-12-20T02:11:06;-28.13;61.88
69598;SHT31;56802;51.184;-115.558;2022-12-20T02:14:10;-28.16;62.05
69598;SHT31;56802;51.184;-115.558;2022-12-20T02:29:34;-28.43;62.08
69598;SHT31;56802;51.184;-115.558;2022-12-20T02:35:00;-28.65;62.10
69598;SHT31;56802;51.184;-115.558;2022-12-20T02:37:30;-28.70;62.20
69598;SHT31;56802;51.184;-115.558;2022-12-20T02:39:59;-28.69;62.40
69598;SHT31;56802;51.184;-115.558;2022-12-20T02:42:31;-28.76;62.36
69598;SHT31;56802;51.184;-115.558;2022-12-20T02:45:07;-28.83;62.21
69598;SHT31;56802;51.184;-115.558;2022-12-20T02:47:54;-28.95;62.11
69598;SHT31;56802;51.184;-115.558;2022-12-20T02:50:36;-28.93;62.29
69598;SHT31;56802;51.184;-115.558;2022-12-20T02:53:11;-28.92;62.37
69598;SHT31;56802;51.184;-115.558;2022-12-20T03:01:29;-29.05;62.30
69598;SHT31;56802;51.184;-115.558;2022-12-20T03:04:12;-29.07;62.18
69598;SHT31;56802;51.184;-115.558;2022-12-20T03:07:02;-29.14;62.17
69598;SHT31;56802;51.184;-115.558;2022-12-20T03:09:39;-29.24;62.15
69598;SHT31;56802;51.184;-115.558;2022-12-20T03:12:10;-29.33;62.06
69598;SHT31;56802;51.184;-115.558;2022-12-20T03:14:42;-29.38;62.14
69598;SHT31;56802;51.184;-115.558;2022-12-20T03:17:11;-29.41;62.14
69598;SHT31;56802;51.184;-115.558;2022-12-20T03:19:40;-29.50;62.01
69598;SHT31;56802;51.184;-115.558;2022-12-20T03:22:10;-29.62;61.85
69598;SHT31;56802;51.184;-115.558;2022-12-20T03:24:39;-29.67;61.85
69598;SHT31;56802;51.184;-115.558;2022-12-20T03:27:08;-29.68;62.02
69598;SHT31;56802;51.184;-115.558;2022-12-20T03:29:37;-29.68;62.16
69598;SHT31;56802;51.184;-115.558;2022-12-20T03:32:06;-29.73;62.20
69598;SHT31;56802;51.184;-115.558;2022-12-20T03:34:37;-29.77;62.11
69598;SHT31;56802;51.184;-115.558;2022-12-20T03:37:06;-29.84;62.12
69598;SHT31;56802;51.184;-115.558;2022-12-20T03:39:35;-29.89;62.10
69598;SHT31;56802;51.184;-115.558;2022-12-20T03:42:04;-29.92;62.28
69598;SHT31;56802;51.184;-115.558;2022-12-20T03:44:33;-29.98;62.25
69598;SHT31;56802;51.184;-115.558;2022-12-20T03:47:02;-30.01;62.29
69598;SHT31;56802;51.184;-115.558;2022-12-20T03:49:31;-30.02;62.37
69598;SHT31;56802;51.184;-115.558;2022-12-20T03:52:01;-29.97;62.60
69598;SHT31;56802;51.184;-115.558;2022-12-20T03:54:32;-30.03;62.52
69598;SHT31;56802;51.184;-115.558;2022-12-20T03:57:01;-30.08;62.43
69598;SHT31;56802;51.184;-115.558;2022-12-20T03:59:30;-30.15;62.41
69598;SHT31;56802;51.184;-115.558;2022-12-20T04:02:00;-30.19;62.24
69598;SHT31;56802;51.184;-115.558;2022-12-20T04:04:31;-30.24;62.14
69598;SHT31;56802;51.184;-115.558;2022-12-20T04:06:59;-30.32;62.06
69598;SHT31;56802;51.184;-115.558;2022-12-20T04:09:28;-30.38;62.01
69598;SHT31;56802;51.184;-115.558;2022-12-20T04:11:58;-30.36;62.12
69598;SHT31;56802;51.184;-115.558;2022-12-20T04:14:27;-30.42;62.18
69598;SHT31;56802;51.184;-115.558;2022-12-20T04:16:56;-30.46;62.19
69598;SHT31;56802;51.184;-115.558;2022-12-20T04:19:25;-30.46;62.34
69598;SHT31;56802;51.184;-115.558;2022-12-20T04:21:54;-30.48;62.40
69598;SHT31;56802;51.184;-115.558;2022-12-20T04:24:31;-30.49;62.42
69598;SHT31;56802;51.184;-115.558;2022-12-20T04:27:01;-30.52;62.43
69598;SHT31;56802;51.184;-115.558;2022-12-20T04:29:30;-30.55;62.45
69598;SHT31;56802;51.184;-115.558;2022-12-20T04:31:59;-30.60;62.43
69598;SHT31;56802;51.184;-115.558;2022-12-20T04:34:28;-30.58;62.57
69598;SHT31;56802;51.184;-115.558;2022-12-20T04:36:57;-30.62;62.50
69598;SHT31;56802;51.184;-115.558;2022-12-20T04:39:26;-30.58;62.56
69598;SHT31;56802;51.184;-115.558;2022-12-20T04:41:55;-30.58;62.63
69598;SHT31;56802;51.184;-115.558;2022-12-20T04:44:24;-30.59;62.56
69598;SHT31;56802;51.184;-115.558;2022-12-20T04:46:54;-30.69;62.32
69598;SHT31;56802;51.184;-115.558;2022-12-20T04:49:23;-30.80;62.17
69598;SHT31;56802;51.184;-115.558;2022-12-20T04:51:52;-30.83;62.17
69598;SHT31;56802;51.184;-115.558;2022-12-20T04:54:41;-30.83;62.34
69598;SHT31;56802;51.184;-115.558;2022-12-20T04:57:10;-30.80;62.53
69598;SHT31;56802;51.184;-115.558;2022-12-20T04:59:39;-30.87;62.41
69598;SHT31;56802;51.184;-115.558;2022-12-20T05:02:09;-30.88;62.47
69598;SHT31;56802;51.184;-115.558;2022-12-20T05:04:38;-30.87;62.60
69598;SHT31;56802;51.184;-115.558;2022-12-20T05:07:08;-30.90;62.47
69598;SHT31;56802;51.184;-115.558;2022-12-20T05:09:37;-30.92;62.49
69598;SHT31;56802;51.184;-115.558;2022-12-20T05:12:06;-30.96;62.45
69598;SHT31;56802;51.184;-115.558;2022-12-20T05:14:35;-31.11;62.16
69598;SHT31;56802;51.184;-115.558;2022-12-20T05:17:04;-31.18;62.10
69598;SHT31;56802;51.184;-115.558;2022-12-20T05:19:33;-31.22;62.15
69598;SHT31;56802;51.184;-115.558;2022-12-20T05:22:01;-31.18;62.32
69598;SHT31;56802;51.184;-115.558;2022-12-20T05:24:48;-31.16;62.52
69598;SHT31;56802;51.184;-115.558;2022-12-20T05:27:35;-31.13;62.71
69598;SHT31;56802;51.184;-115.558;2022-12-20T05:30:05;-31.16;62.79
69598;SHT31;56802;51.184;-115.558;2022-12-20T05:32:35;-31.23;62.77
69598;SHT31;56802;51.184;-115.558;2022-12-20T05:35:04;-31.28;62.68
69598;SHT31;56802;51.184;-115.558;2022-12-20T05:37:33;-31.33;62.60
69598;SHT31;56802;51.184;-115.558;2022-12-20T05:40:02;-31.39;62.52
69598;SHT31;56802;51.184;-115.558;2022-12-20T05:42:31;-31.40;62.41
69598;SHT31;56802;51.184;-115.558;2022-12-20T05:45:00;-31.40;62.47
69598;SHT31;56802;51.184;-115.558;2022-12-20T05:47:30;-31.42;62.57
69598;SHT31;56802;51.184;-115.558;2022-12-20T05:50:00;-31.44;62.58
69598;SHT31;56802;51.184;-115.558;2022-12-20T05:52:30;-31.47;62.48
69598;SHT31;56802;51.184;-115.558;2022-12-20T05:54:59;-31.53;62.32
69598;SHT31;56802;51.184;-115.558;2022-12-20T05:57:28;-31.64;62.18
69598;SHT31;56802;51.184;-115.558;2022-12-20T05:59:58;-31.67;62.04
69598;SHT31;56802;51.184;-115.558;2022-12-20T06:02:27;-31.68;62.20
69598;SHT31;56802;51.184;-115.558;2022-12-20T06:04:56;-31.77;62.07
69598;SHT31;56802;51.184;-115.558;2022-12-20T06:07:25;-31.86;62.03
69598;SHT31;56802;51.184;-115.558;2022-12-20T06:09:56;-31.87;62.05
69598;SHT31;56802;51.184;-115.558;2022-12-20T06:12:25;-31.84;62.15
69598;SHT31;56802;51.184;-115.558;2022-12-20T06:14:55;-31.81;62.26
69598;SHT31;56802;51.184;-115.558;2022-12-20T06:17:23;-31.82;62.24
69598;SHT31;56802;51.184;-115.558;2022-12-20T06:19:52;-31.87;62.10
69598;SHT31;56802;51.184;-115.558;2022-12-20T06:22:21;-31.87;62.15
69598;SHT31;56802;51.184;-115.558;2022-12-20T06:24:50;-31.88;62.15
69598;SHT31;56802;51.184;-115.558;2022-12-20T06:27:20;-31.99;61.89
69598;SHT31;56802;51.184;-115.558;2022-12-20T06:29:49;-32.06;61.84
69598;SHT31;56802;51.184;-115.558;2022-12-20T06:32:20;-32.12;61.86
69598;SHT31;56802;51.184;-115.558;2022-12-20T06:34:49;-32.15;61.89
69598;SHT31;56802;51.184;-115.558;2022-12-20T06:37:18;-32.26;61.82
69598;SHT31;56802;51.184;-115.558;2022-12-20T06:39:47;-32.29;61.92
69598;SHT31;56802;51.184;-115.558;2022-12-20T06:42:19;-32.31;61.93
69598;SHT31;56802;51.184;-115.558;2022-12-20T06:44:48;-32.34;61.81
69598;SHT31;56802;51.184;-115.558;2022-12-20T06:47:16;-32.33;61.71
69598;SHT31;56802;51.184;-115.558;2022-12-20T06:49:45;-32.35;61.71
69598;SHT31;56802;51.184;-115.558;2022-12-20T06:52:14;-32.39;61.63
69598;SHT31;56802;51.184;-115.558;2022-12-20T06:54:43;-32.41;61.60
69598;SHT31;56802;51.184;-115.558;2022-12-20T06:57:12;-32.45;61.63
69598;SHT31;56802;51.184;-115.558;2022-12-20T06:59:42;-32.49;61.52
69598;SHT31;56802;51.184;-115.558;2022-12-20T07:02:11;-32.47;61.58
69598;SHT31;56802;51.184;-115.558;2022-12-20T07:04:44;-32.49;61.70
69598;SHT31;56802;51.184;-115.558;2022-12-20T07:07:13;-32.57;61.55
69598;SHT31;56802;51.184;-115.558;2022-12-20T07:09:42;-32.62;61.50
69598;SHT31;56802;51.184;-115.558;2022-12-20T07:12:10;-32.66;61.42
69598;SHT31;56802;51.184;-115.558;2022-12-20T07:14:40;-32.62;61.55
69598;SHT31;56802;51.184;-115.558;2022-12-20T07:17:10;-32.64;61.61
69598;SHT31;56802;51.184;-115.558;2022-12-20T07:19:39;-32.64;61.68
69598;SHT31;56802;51.184;-115.558;2022-12-20T07:22:16;-32.66;61.77
69598;SHT31;56802;51.184;-115.558;2022-12-20T07:24:45;-32.68;61.86
69598;SHT31;56802;51.184;-115.558;2022-12-20T07:27:14;-32.65;61.90
69598;SHT31;56802;51.184;-115.558;2022-12-20T07:29:44;-32.50;61.77
69598;SHT31;56802;51.184;-115.558;2022-12-20T07:32:13;-32.38;61.32
69598;SHT31;56802;51.184;-115.558;2022-12-20T07:34:42;-32.48;61.12
69598;SHT31;56802;51.184;-115.558;2022-12-20T07:37:11;-32.63;61.23
69598;SHT31;56802;51.184;-115.558;2022-12-20T07:39:40;-32.75;61.20
69598;SHT31;56802;51.184;-115.558;2022-12-20T07:42:09;-32.82;61.29
69598;SHT31;56802;51.184;-115.558;2022-12-20T07:44:39;-32.88;61.27
69598;SHT31;56802;51.184;-115.558;2022-12-20T07:47:09;-32.91;61.22
69598;SHT31;56802;51.184;-115.558;2022-12-20T07:49:38;-32.92;61.45
69598;SHT31;56802;51.184;-115.558;2022-12-20T07:52:07;-32.99;61.50
69598;SHT31;56802;51.184;-115.558;2022-12-20T07:54:47;-33.02;61.49
69598;SHT31;56802;51.184;-115.558;2022-12-20T07:57:26;-33.07;61.44
69598;SHT31;56802;51.184;-115.558;2022-12-20T08:00:05;-33.14;61.42
69598;SHT31;56802;51.184;-115.558;2022-12-20T08:02:45;-33.19;61.56
69598;SHT31;56802;51.184;-115.558;2022-12-20T08:05:45;-33.45;61.10
69598;SHT31;56802;51.184;-115.558;2022-12-20T08:08:21;-33.67;60.82
69598;SHT31;56802;51.184;-115.558;2022-12-20T08:10:51;-33.67;60.97
69598;SHT31;56802;51.184;-115.558;2022-12-20T08:13:23;-33.66;61.10
69598;SHT31;56802;51.184;-115.558;2022-12-20T08:15:53;-33.67;61.12
69598;SHT31;56802;51.184;-115.558;2022-12-20T08:18:22;-33.70;61.15
69598;SHT31;56802;51.184;-115.558;2022-12-20T08:20:51;-33.77;61.04
69598;SHT31;56802;51.184;-115.558;2022-12-20T08:23:20;-33.88;60.92
69598;SHT31;56802;51.184;-115.558;2022-12-20T08:25:49;-33.95;60.95
69598;SHT31;56802;51.184;-115.558;2022-12-20T08:28:18;-33.96;61.13
69598;SHT31;56802;51.184;-115.558;2022-12-20T08:30:47;-34.16;60.84
69598;SHT31;56802;51.184;-115.558;2022-12-20T08:33:16;-34.21;60.94
69598;SHT31;56802;51.184;-115.558;2022-12-20T08:35:46;-34.27;60.96
69598;SHT31;56802;51.184;-115.558;2022-12-20T08:38:15;-34.28;61.18
69598;SHT31;56802;51.184;-115.558;2022-12-20T08:40:44;-34.42;61.04
69598;SHT31;56802;51.184;-115.558;2022-12-20T08:43:13;-34.42;61.17
69598;SHT31;56802;51.184;-115.558;2022-12-20T08:45:42;-34.38;61.40
69598;SHT31;56802;51.184;-115.558;2022-12-20T08:48:11;-34.32;61.58
69598;SHT31;56802;51.184;-115.558;2022-12-20T08:50:40;-34.24;61.88
69598;SHT31;56802;51.184;-115.558;2022-12-20T08:53:09;-34.16;61.95
69598;SHT31;56802;51.184;-115.558;2022-12-20T08:55:41;-34.09;62.11
69598;SHT31;56802;51.184;-115.558;2022-12-20T08:58:10;-34.14;62.07
69598;SHT31;56802;51.184;-115.558;2022-12-20T09:00:39;-34.13;62.22
69598;SHT31;56802;51.184;-115.558;2022-12-20T09:03:12;-34.10;62.30
69598;SHT31;56802;51.184;-115.558;2022-12-20T09:05:45;-34.17;62.08
69598;SHT31;56802;51.184;-115.558;2022-12-20T09:08:15;-34.12;62.03
69598;SHT31;56802;51.184;-115.558;2022-12-20T09:10:44;-34.15;62.01
69598;SHT31;56802;51.184;-115.558;2022-12-20T09:13:13;-34.23;61.84
69598;SHT31;56802;51.184;-115.558;2022-12-20T09:15:42;-34.30;61.73
69598;SHT31;56802;51.184;-115.558;2022-12-20T09:18:11;-34.32;61.72
69598;SHT31;56802;51.184;-115.558;2022-12-20T09:20:41;-34.27;61.90
69598;SHT31;56802;51.184;-115.558;2022-12-20T09:23:12;-34.21;62.07
69598;SHT31;56802;51.184;-115.558;2022-12-20T09:25:41;-34.18;62.12
69598;SHT31;56802;51.184;-115.558;2022-12-20T09:28:17;-34.17;62.11
69598;SHT31;56802;51.184;-115.558;2022-12-20T09:30:46;-34.13;62.25
69598;SHT31;56802;51.184;-115.558;2022-12-20T09:33:15;-34.08;62.25
69598;SHT31;56802;51.184;-115.558;2022-12-20T09:35:44;-34.15;62.13
69598;SHT31;56802;51.184;-115.558;2022-12-20T09:38:14;-34.32;61.83
69598;SHT31;56802;51.184;-115.558;2022-12-20T09:40:44;-34.49;61.60
69598;SHT31;56802;51.184;-115.558;2022-12-20T09:43:17;-34.59;61.59
69598;SHT31;56802;51.184;-115.558;2022-12-20T09:45:50;-34.68;61.54
69598;SHT31;56802;51.184;-115.558;2022-12-20T09:48:25;-34.66;61.67
69598;SHT31;56802;51.184;-115.558;2022-12-20T09:56:29;-34.49;62.07
69598;SHT31;56802;51.184;-115.558;2022-12-20T09:59:05;-34.43;62.18
69598;SHT31;56802;51.184;-115.558;2022-12-20T10:01:47;-34.44;62.21
69598;SHT31;56802;51.184;-115.558;2022-12-20T10:04:21;-34.47;62.11
69598;SHT31;56802;51.184;-115.558;2022-12-20T10:10:18;-34.49;62.45
69598;SHT31;56802;51.184;-115.558;2022-12-20T10:22:22;-34.58;62.71
69598;SHT31;56802;51.184;-115.558;2022-12-20T10:28:00;-34.15;63.96
69598;SHT31;56802;51.184;-115.558;2022-12-20T10:30:39;-34.03;64.05
69598;SHT31;56802;51.184;-115.558;2022-12-20T10:33:26;-33.97;64.10
69598;SHT31;56802;51.184;-115.558;2022-12-20T10:38:56;-33.74;64.10
69598;SHT31;56802;51.184;-115.558;2022-12-20T10:44:19;-33.63;63.96
69598;SHT31;56802;51.184;-115.558;2022-12-20T10:46:57;-33.60;64.11
69598;SHT31;56802;51.184;-115.558;2022-12-20T10:49:37;-33.68;63.90
69598;SHT31;56802;51.184;-115.558;2022-12-20T10:52:13;-33.72;63.80
69598;SHT31;56802;51.184;-115.558;2022-12-20T10:54:44;-33.83;63.20
69598;SHT31;56802;51.184;-115.558;2022-12-20T10:57:21;-33.92;62.71
69598;SHT31;56802;51.184;-115.558;2022-12-20T10:59:57;-33.97;62.43
69598;SHT31;56802;51.184;-115.558;2022-12-20T11:07:52;-33.94;62.11
69598;SHT31;56802;51.184;-115.558;2022-12-20T11:13:49;-33.95;62.17
69598;SHT31;56802;51.184;-115.558;2022-12-20T11:16:28;-33.89;62.42
69598;SHT31;56802;51.184;-115.558;2022-12-20T11:34:30;-33.83;62.97
69598;SHT31;56802;51.184;-115.558;2022-12-20T11:37:27;-33.77;63.11
69598;SHT31;56802;51.184;-115.558;2022-12-20T11:40:43;-33.74;63.12
69598;SHT31;56802;51.184;-115.558;2022-12-20T11:55:25;-33.67;62.71
69598;SHT31;56802;51.184;-115.558;2022-12-20T11:58:17;-33.69;62.72
69598;SHT31;56802;51.184;-115.558;2022-12-20T12:01:25;-33.71;62.90
69598;SHT31;56802;51.184;-115.558;2022-12-20T12:04:30;-33.71;62.84
69598;SHT31;56802;51.184;-115.558;2022-12-20T12:07:09;-33.64;62.75
69598;SHT31;56802;51.184;-115.558;2022-12-20T12:12:42;-33.58;63.06
69598;SHT31;56802;51.184;-115.558;2022-12-20T12:26:46;-33.46;62.50
69598;SHT31;56802;51.184;-115.558;2022-12-20T12:29:15;-33.47;62.82
69598;SHT31;56802;51.184;-115.558;2022-12-20T12:31:54;-33.63;62.60
69598;SHT31;56802;51.184;-115.558;2022-12-20T12:37:40;-33.85;62.38
69598;SHT31;56802;51.184;-115.558;2022-12-20T12:47:51;-34.21;62.30
69598;SHT31;56802;51.184;-115.558;2022-12-20T12:50:29;-34.21;62.54
69598;SHT31;56802;51.184;-115.558;2022-12-20T12:53:16;-34.19;62.70
69598;SHT31;56802;51.184;-115.558;2022-12-20T12:55:57;-34.07;63.01
69598;SHT31;56802;51.184;-115.558;2022-12-20T13:01:54;-33.91;63.35
69598;SHT31;56802;51.184;-115.558;2022-12-20T13:04:53;-33.96;63.17
69598;SHT31;56802;51.184;-115.558;2022-12-20T13:17:53;-33.56;63.95
69598;SHT31;56802;51.184;-115.558;2022-12-20T13:20:33;-33.44;64.15
69598;SHT31;56802;51.184;-115.558;2022-12-20T13:25:45;-33.26;64.07
69598;SHT31;56802;51.184;-115.558;2022-12-20T13:33:41;-33.01;64.26
69598;SHT31;56802;51.184;-115.558;2022-12-20T13:36:31;-32.88;64.36
69598;SHT31;56802;51.184;-115.558;2022-12-20T13:39:28;-32.85;64.44
69598;SHT31;56802;51.184;-115.558;2022-12-20T13:42:05;-32.87;64.26
69598;SHT31;56802;51.184;-115.558;2022-12-20T13:45:00;-32.80;64.40
69598;SHT31;56802;51.184;-115.558;2022-12-20T13:47:36;-32.78;64.36
69598;SHT31;56802;51.184;-115.558;2022-12-20T13:50:21;-32.79;64.31
69598;SHT31;56802;51.184;-115.558;2022-12-20T13:53:16;-32.96;63.78
69598;SHT31;56802;51.184;-115.558;2022-12-20T13:55:48;-32.90;63.70
69598;SHT31;56802;51.184;-115.558;2022-12-20T13:58:18;-32.86;63.71
69598;SHT31;56802;51.184;-115.558;2022-12-20T14:01:02;-32.78;63.91
69598;SHT31;56802;51.184;-115.558;2022-12-20T14:03:41;-32.72;63.85
69598;SHT31;56802;51.184;-115.558;2022-12-20T14:06:15;-32.58;63.99
69598;SHT31;56802;51.184;-115.558;2022-12-20T14:08:52;-32.56;64.13
69598;SHT31;56802;51.184;-115.558;2022-12-20T14:11:25;-32.58;64.08
69598;SHT31;56802;51.184;-115.558;2022-12-20T14:13:57;-32.64;63.91
69598;SHT31;56802;51.184;-115.558;2022-12-20T14:16:31;-32.65;64.11
69598;SHT31;56802;51.184;-115.558;2022-12-20T14:19:01;-32.57;64.50
69598;SHT31;56802;51.184;-115.558;2022-12-20T14:21:34;-32.44;64.76
69598;SHT31;56802;51.184;-115.558;2022-12-20T14:24:17;-32.39;64.68
69598;SHT31;56802;51.184;-115.558;2022-12-20T14:26:50;-32.41;64.38
69598;SHT31;56802;51.184;-115.558;2022-12-20T14:29:27;-32.43;64.21
69598;SHT31;56802;51.184;-115.558;2022-12-20T14:31:58;-32.49;64.10
69598;SHT31;56802;51.184;-115.558;2022-12-20T14:34:28;-32.49;63.94
69598;SHT31;56802;51.184;-115.558;2022-12-20T14:42:37;-32.36;64.61
69598;SHT31;56802;51.184;-115.558;2022-12-20T14:48:03;-32.27;64.50
69598;SHT31;56802;51.184;-115.558;2022-12-20T14:50:50;-32.19;64.50
69598;SHT31;56802;51.184;-115.558;2022-12-20T14:53:22;-32.11;64.74
69598;SHT31;56802;51.184;-115.558;2022-12-20T14:55:56;-32.01;65.04
69598;SHT31;56802;51.184;-115.558;2022-12-20T14:58:26;-31.94;65.12
69598;SHT31;56802;51.184;-115.558;2022-12-20T15:01:02;-31.80;65.49
69598;SHT31;56802;51.184;-115.558;2022-12-20T15:03:57;-31.64;65.98
69598;SHT31;56802;51.184;-115.558;2022-12-20T15:09:09;-31.11;67.11
69598;SHT31;56802;51.184;-115.558;2022-12-20T15:11:39;-30.98;67.20
69598;SHT31;56802;51.184;-115.558;2022-12-20T15:17:11;-30.93;66.54
69598;SHT31;56802;51.184;-115.558;2022-12-20T15:19:42;-30.96;66.20
69598;SHT31;56802;51.184;-115.558;2022-12-20T15:22:12;-30.88;66.18
69598;SHT31;56802;51.184;-115.558;2022-12-20T15:24:44;-30.86;65.93
69598;SHT31;56802;51.184;-115.558;2022-12-20T15:27:13;-30.81;66.11
69598;SHT31;56802;51.184;-115.558;2022-12-20T15:29:43;-30.78;66.04
69598;SHT31;56802;51.184;-115.558;2022-12-20T15:32:22;-30.78;66.01
69598;SHT31;56802;51.184;-115.558;2022-12-20T15:34:58;-30.71;66.21
69598;SHT31;56802;51.184;-115.558;2022-12-20T15:37:27;-30.66;66.21
69598;SHT31;56802;51.184;-115.558;2022-12-20T15:39:56;-30.67;65.94
69598;SHT31;56802;51.184;-115.558;2022-12-20T15:42:24;-30.67;65.89
69598;SHT31;56802;51.184;-115.558;2022-12-20T15:44:53;-30.67;65.75
69598;SHT31;56802;51.184;-115.558;2022-12-20T15:47:23;-30.65;65.61
69598;SHT31;56802;51.184;-115.558;2022-12-20T15:49:52;-30.59;65.62
69598;SHT31;56802;51.184;-115.558;2022-12-20T15:52:22;-30.66;65.43
69598;SHT31;56802;51.184;-115.558;2022-12-20T15:54:51;-30.75;65.40
69598;SHT31;56802;51.184;-115.558;2022-12-20T15:57:20;-30.75;65.53
69598;SHT31;56802;51.184;-115.558;2022-12-20T15:59:49;-30.65;65.71
69598;SHT31;56802;51.184;-115.558;2022-12-20T16:02:28;-30.54;65.91
69598;SHT31;56802;51.184;-115.558;2022-12-20T16:04:59;-30.42;66.32
69598;SHT31;56802;51.184;-115.558;2022-12-20T16:07:28;-30.27;66.70
69598;SHT31;56802;51.184;-115.558;2022-12-20T16:09:57;-30.13;67.00
69598;SHT31;56802;51.184;-115.558;2022-12-20T16:12:27;-30.03;66.89
69598;SHT31;56802;51.184;-115.558;2022-12-20T16:15:02;-29.94;66.88
69598;SHT31;56802;51.184;-115.558;2022-12-20T16:17:31;-29.90;66.82
69598;SHT31;56802;51.184;-115.558;2022-12-20T16:20:00;-29.82;66.94
69598;SHT31;56802;51.184;-115.558;2022-12-20T16:22:29;-29.86;66.72
69598;SHT31;56802;51.184;-115.558;2022-12-20T16:24:58;-29.95;66.51
